Time;durP1;ratioP1;P1;durP2;ratioP2;P2;SDS_P1;SDS_P2;PMS_P1;PMS_P2;Temp;Humidity;BMP_temperature;BMP_pressure;BME280_temperature;BME280_humidity;BME280_pressure;Samples;Min_cycle;Max_cycle;Signal;HPM_P1;HPM_P2
2022/11/24 00:01:15;;;;;;;7.60;2.10;;;6.40;99.90;;;;;;5097570;28;20020;-69
2022/11/24 00:03:43;;;;;;;5.82;1.90;;;6.50;99.90;;;;;;5097301;28;20027;-69
2022/11/24 00:06:13;;;;;;;10.15;2.10;;;6.50;99.90;;;;;;5096966;28;20436;-69
2022/11/24 00:08:42;;;;;;;7.45;2.00;;;6.50;99.90;;;;;;5096948;28;20024;-69
2022/11/24 00:11:13;;;;;;;4.30;1.83;;;6.60;99.90;;;;;;5096797;28;20027;-69
2022/11/24 00:13:40;;;;;;;3.28;1.50;;;6.60;99.90;;;;;;5079114;28;20035;-69
2022/11/24 00:16:16;;;;;;;8.10;2.65;;;6.60;99.90;;;;;;5096805;28;20016;-69
2022/11/24 00:18:45;;;;;;;6.80;1.85;;;6.60;99.90;;;;;;5097315;28;20023;-69
2022/11/24 00:21:14;;;;;;;5.28;1.60;;;6.50;99.90;;;;;;5095924;28;20030;-69
2022/11/24 00:23:42;;;;;;;5.75;1.73;;;6.50;99.90;;;;;;5096938;28;20420;-69
2022/11/24 00:26:15;;;;;;;6.30;1.98;;;6.50;99.90;;;;;;5096651;28;20024;-69
2022/11/24 00:28:44;;;;;;;5.15;1.67;;;6.50;99.90;;;;;;5078818;28;20420;-69
2022/11/24 00:31:21;;;;;;;5.18;1.67;;;6.50;99.90;;;;;;5078634;28;20054;-69
2022/11/24 00:33:50;;;;;;;4.63;2.10;;;6.50;99.90;;;;;;5097064;28;20016;-69
2022/11/24 00:36:19;;;;;;;7.07;2.20;;;6.50;99.90;;;;;;5096503;28;20095;-69
2022/11/24 00:38:47;;;;;;;4.65;2.00;;;6.50;99.90;;;;;;5096563;28;20047;-69
2022/11/24 00:41:15;;;;;;;4.55;1.42;;;6.50;99.90;;;;;;5098339;28;20024;-69
2022/11/24 00:43:42;;;;;;;4.72;2.00;;;6.50;99.90;;;;;;5097083;28;20028;-69
2022/11/24 00:46:10;;;;;;;11.45;2.80;;;6.50;99.90;;;;;;5078574;28;20066;-69
2022/11/24 00:48:38;;;;;;;11.13;2.15;;;6.50;99.90;;;;;;5078511;28;20420;-69
2022/11/24 00:51:07;;;;;;;7.32;1.90;;;6.50;99.90;;;;;;5078664;28;20068;-69
2022/11/24 00:53:35;;;;;;;6.20;2.38;;;6.50;99.90;;;;;;5097001;28;20016;-69
2022/11/24 00:56:02;;;;;;;8.73;1.83;;;6.50;99.90;;;;;;5096682;28;20215;-69
2022/11/24 00:58:31;;;;;;;15.70;2.78;;;6.50;99.90;;;;;;5078977;28;20040;-69
2022/11/24 01:01:03;;;;;;;9.27;2.50;;;6.50;99.90;;;;;;5096374;28;20031;-69
2022/11/24 01:03:31;;;;;;;3.08;1.40;;;6.50;99.90;;;;;;5096343;28;20024;-69
2022/11/24 01:06:04;;;;;;;7.28;2.63;;;6.50;99.90;;;;;;5096281;28;20324;-69
2022/11/24 01:08:31;;;;;;;10.30;2.20;;;6.50;99.90;;;;;;5097019;28;20136;-69
2022/11/24 01:11:26;;;;;;;8.02;2.00;;;6.50;99.90;;;;;;5078274;28;20419;-69
2022/11/24 01:13:56;;;;;;;6.47;1.88;;;6.50;99.90;;;;;;5096331;28;20028;-69
2022/11/24 01:16:29;;;;;;;7.38;2.47;;;6.60;99.90;;;;;;5096531;28;20311;-69
2022/11/24 01:18:56;;;;;;;8.95;2.00;;;6.60;99.90;;;;;;5096496;28;20051;-69
2022/11/24 01:21:24;;;;;;;2.95;1.55;;;6.60;99.90;;;;;;5078945;28;20024;-69
2022/11/24 01:23:51;;;;;;;10.05;2.00;;;6.60;99.90;;;;;;5096740;28;20016;-69
2022/11/24 01:26:21;;;;;;;10.82;2.58;;;6.60;99.90;;;;;;5096126;28;20028;-69
2022/11/24 01:28:54;;;;;;;5.75;2.00;;;6.60;99.90;;;;;;5096834;28;20473;-69
2022/11/24 01:31:21;;;;;;;4.82;1.70;;;6.60;99.90;;;;;;5096048;28;20408;-69
2022/11/24 01:33:49;;;;;;;8.15;2.03;;;6.60;99.90;;;;;;5099042;28;20069;-69
2022/11/24 01:36:16;;;;;;;10.77;2.15;;;6.60;99.90;;;;;;5100305;28;20074;-69
2022/11/24 01:38:43;;;;;;;8.45;2.13;;;6.60;99.90;;;;;;5099926;28;20016;-69
2022/11/24 01:41:13;;;;;;;7.97;2.13;;;6.60;99.90;;;;;;5100219;28;20031;-69
2022/11/24 01:43:42;;;;;;;13.30;2.30;;;6.60;99.90;;;;;;5081644;28;20046;-69
2022/11/24 01:46:42;;;;;;;5.40;1.60;;;6.70;99.90;;;;;;5099575;28;20024;-69
2022/11/24 01:49:19;;;;;;;9.00;1.90;;;6.60;99.90;;;;;;5099898;28;20343;-69
2022/11/24 01:51:59;;;;;;;10.27;1.95;;;6.70;99.90;;;;;;5099413;28;20039;-69
2022/11/24 01:54:38;;;;;;;7.15;1.92;;;6.70;99.90;;;;;;5081514;28;20055;-69
2022/11/24 01:57:22;;;;;;;6.47;1.80;;;6.70;99.90;;;;;;5099227;28;20123;-69
2022/11/24 01:59:55;;;;;;;7.53;2.00;;;6.70;99.90;;;;;;5099899;28;20016;-69
2022/11/24 02:02:23;;;;;;;7.07;2.05;;;6.70;99.90;;;;;;5099297;28;20020;-69
2022/11/24 02:04:51;;;;;;;9.20;2.00;;;6.80;99.90;;;;;;5099338;28;20361;-69
2022/11/24 02:07:18;;;;;;;10.57;1.85;;;6.80;99.90;;;;;;5099149;28;20024;-69
2022/11/24 02:09:54;;;;;;;7.40;2.58;;;6.80;99.90;;;;;;5081176;28;20115;-69
2022/11/24 02:12:24;;;;;;;8.05;2.35;;;6.80;99.90;;;;;;5099111;28;20084;-69
2022/11/24 02:14:53;;;;;;;8.82;1.70;;;6.80;99.90;;;;;;5099518;28;20403;-69
2022/11/24 02:17:21;;;;;;;9.00;2.78;;;6.80;99.90;;;;;;5099018;28;20024;-69
2022/11/24 02:19:59;;;;;;;10.75;1.98;;;6.80;99.90;;;;;;5099046;28;20051;-69
2022/11/24 02:22:47;;;;;;;9.13;2.00;;;6.80;99.90;;;;;;5098888;28;20024;-69
2022/11/24 02:25:33;;;;;;;7.13;2.25;;;6.90;99.90;;;;;;5099102;28;20027;-69
2022/11/24 02:28:05;;;;;;;7.97;2.05;;;6.90;99.90;;;;;;5099363;28;20408;-69
2022/11/24 02:30:34;;;;;;;11.57;3.03;;;6.90;99.90;;;;;;5099218;28;20036;-69
2022/11/24 02:33:02;;;;;;;14.65;3.80;;;6.90;99.90;;;;;;5098785;28;20024;-69
2022/11/24 02:35:30;;;;;;;9.77;2.65;;;6.90;99.90;;;;;;5098924;28;20372;-69
2022/11/24 02:37:58;;;;;;;8.20;2.95;;;6.90;99.90;;;;;;5098622;28;20047;-69
2022/11/24 02:40:29;;;;;;;8.38;1.98;;;6.90;99.90;;;;;;5098813;28;20043;-69
2022/11/24 02:43:08;;;;;;;8.70;2.22;;;6.90;99.90;;;;;;5098516;28;20028;-69
2022/11/24 02:45:35;;;;;;;9.30;3.00;;;6.90;99.90;;;;;;5098149;28;20020;-69
2022/11/24 02:48:02;;;;;;;9.20;3.05;;;7.00;99.90;;;;;;5098913;28;20099;-69
2022/11/24 02:50:29;;;;;;;7.47;1.85;;;6.90;99.90;;;;;;5098794;28;20020;-69
2022/11/24 02:52:57;;;;;;;11.02;2.85;;;7.00;99.90;;;;;;5098451;28;20023;-69
2022/11/24 02:55:24;;;;;;;13.57;2.30;;;7.00;99.90;;;;;;5098814;28;20035;-69
2022/11/24 02:57:52;;;;;;;12.02;2.85;;;7.00;99.90;;;;;;5098004;28;20090;-69
2022/11/24 03:00:19;;;;;;;20.88;2.35;;;7.00;99.90;;;;;;5098714;28;20031;-69
2022/11/24 03:02:47;;;;;;;11.38;2.53;;;7.10;99.90;;;;;;5080153;28;20042;-69
2022/11/24 03:05:14;;;;;;;8.82;2.28;;;7.10;99.90;;;;;;5098010;28;20020;-69
2022/11/24 03:07:42;;;;;;;12.23;2.38;;;7.20;99.90;;;;;;5098578;28;20031;-69
2022/11/24 03:10:09;;;;;;;22.25;3.25;;;7.10;99.90;;;;;;5098095;28;20420;-69
2022/11/24 03:12:36;;;;;;;13.20;2.78;;;7.20;99.90;;;;;;5098510;28;20358;-68
2022/11/24 03:15:05;;;;;;;14.80;3.83;;;7.20;99.90;;;;;;5097852;28;20016;-69
2022/11/24 03:17:32;;;;;;;12.80;3.25;;;7.20;99.90;;;;;;5097966;28;20020;-69
2022/11/24 03:20:01;;;;;;;16.60;2.83;;;7.20;99.90;;;;;;5097711;28;20028;-69
2022/11/24 03:22:28;;;;;;;13.32;3.45;;;7.20;99.90;;;;;;5098339;28;20016;-69
2022/11/24 03:24:55;;;;;;;17.38;2.78;;;7.20;99.90;;;;;;5097965;28;20412;-69
2022/11/24 03:27:22;;;;;;;10.30;2.85;;;7.20;99.90;;;;;;5097667;28;20020;-69
2022/11/24 03:29:49;;;;;;;10.82;2.78;;;7.10;99.90;;;;;;5097674;28;20016;-69
2022/11/24 03:32:17;;;;;;;17.30;2.90;;;7.10;99.90;;;;;;5098086;28;20490;-69
2022/11/24 03:34:45;;;;;;;8.05;3.00;;;7.10;99.90;;;;;;5097511;28;20031;-69
2022/11/24 03:37:12;;;;;;;17.58;4.50;;;7.10;99.90;;;;;;5097465;28;20039;-69
2022/11/24 03:39:39;;;;;;;17.85;5.43;;;7.10;99.90;;;;;;5097614;28;20016;-69
2022/11/24 03:42:07;;;;;;;15.95;3.38;;;7.00;99.90;;;;;;5097897;28;20024;-69
2022/11/24 03:44:34;;;;;;;19.58;4.50;;;7.00;99.90;;;;;;5097633;28;20034;-69
2022/11/24 03:47:01;;;;;;;13.00;2.92;;;6.90;99.90;;;;;;5097858;28;20032;-69
2022/11/24 03:49:29;;;;;;;19.60;4.15;;;6.90;99.90;;;;;;5097332;28;20069;-69
2022/11/24 03:51:57;;;;;;;11.65;3.33;;;6.80;99.90;;;;;;5097447;28;20533;-69
2022/11/24 03:54:24;;;;;;;18.48;3.08;;;6.80;99.90;;;;;;5097146;28;20022;-69
2022/11/24 03:56:52;;;;;;;13.65;2.63;;;6.70;99.90;;;;;;5097109;28;20044;-69
2022/11/24 03:59:19;;;;;;;11.05;3.00;;;6.70;99.90;;;;;;5097825;28;20020;-69
2022/11/24 04:01:46;;;;;;;12.50;3.55;;;6.60;99.90;;;;;;5097585;28;20308;-69
2022/11/24 04:04:14;;;;;;;8.48;2.60;;;6.50;99.90;;;;;;5078993;28;20491;-69
2022/11/24 04:06:41;;;;;;;7.70;3.70;;;6.40;99.90;;;;;;5078999;28;20114;-69
2022/11/24 04:09:24;;;;;;;17.80;3.20;;;6.40;99.90;;;;;;5097374;28;20024;-69
2022/11/24 04:14:37;;;;;;;16.27;2.45;;;6.20;99.90;;;;;;5097833;28;20039;-69
2022/11/24 04:17:04;;;;;;;12.75;3.03;;;6.20;99.90;;;;;;5096864;28;20416;-69
2022/11/24 04:19:32;;;;;;;11.50;2.30;;;6.20;99.90;;;;;;5096784;28;20035;-69
2022/11/24 04:21:59;;;;;;;14.32;3.40;;;6.10;99.90;;;;;;5097294;28;20024;-69
2022/11/24 04:24:26;;;;;;;11.95;2.88;;;6.10;99.90;;;;;;5097485;28;20344;-69
2022/11/24 04:26:54;;;;;;;11.32;2.42;;;6.10;99.90;;;;;;5097241;28;20028;-69
2022/11/24 04:29:22;;;;;;;17.10;2.70;;;6.10;99.90;;;;;;5078745;28;20024;-69
2022/11/24 04:31:49;;;;;;;8.85;3.40;;;6.10;99.90;;;;;;5096576;28;20032;-69
2022/11/24 04:34:16;;;;;;;13.43;3.45;;;6.10;99.90;;;;;;5096783;28;20028;-69
2022/11/24 04:36:43;;;;;;;11.88;3.13;;;6.10;99.90;;;;;;5096600;28;20016;-69
2022/11/24 04:39:11;;;;;;;11.05;2.20;;;6.10;99.90;;;;;;5096871;28;20027;-69
2022/11/24 04:41:38;;;;;;;14.85;3.78;;;6.10;99.90;;;;;;5096589;28;20074;-69
2022/11/24 04:44:05;;;;;;;10.52;2.80;;;6.10;99.90;;;;;;5096586;28;20103;-69
2022/11/24 04:46:33;;;;;;;9.43;2.50;;;6.20;99.90;;;;;;5096552;28;20028;-69
2022/11/24 04:49:00;;;;;;;13.73;2.28;;;6.20;99.90;;;;;;5096867;28;20051;-69
2022/11/24 04:51:27;;;;;;;15.07;2.35;;;6.20;99.90;;;;;;5096979;28;20137;-69
2022/11/24 04:53:55;;;;;;;13.23;3.30;;;6.20;99.90;;;;;;5096532;28;20305;-69
2022/11/24 04:56:22;;;;;;;10.00;2.42;;;6.20;99.90;;;;;;5096473;28;20339;-69
2022/11/24 04:58:50;;;;;;;20.17;3.53;;;6.20;99.90;;;;;;5078836;28;20012;-69
2022/11/24 05:01:17;;;;;;;11.18;3.28;;;6.20;99.90;;;;;;5096381;28;20106;-69
2022/11/24 05:03:44;;;;;;;11.85;3.17;;;6.20;99.90;;;;;;5096714;28;20024;-69
2022/11/24 05:06:12;;;;;;;31.98;9.35;;;6.30;99.90;;;;;;5096895;28;20056;-69
2022/11/24 05:08:39;;;;;;;33.53;11.07;;;6.20;99.90;;;;;;5099469;28;20024;-69
2022/11/24 05:11:07;;;;;;;21.15;4.97;;;6.20;99.90;;;;;;5100191;28;20035;-69
2022/11/24 05:13:34;;;;;;;12.02;3.25;;;6.20;99.90;;;;;;5100324;28;20016;-69
2022/11/24 05:16:02;;;;;;;19.42;3.80;;;6.20;99.90;;;;;;5100206;28;20012;-69
2022/11/24 05:18:29;;;;;;;9.25;2.78;;;6.20;99.90;;;;;;5100544;28;20027;-69
2022/11/24 05:20:58;;;;;;;14.48;3.45;;;6.20;99.90;;;;;;5100647;28;20115;-69
2022/11/24 05:23:26;;;;;;;10.90;2.25;;;6.20;99.90;;;;;;5082075;28;20028;-69
2022/11/24 05:25:53;;;;;;;10.18;2.65;;;6.30;99.90;;;;;;5100017;28;20443;-69
2022/11/24 05:28:20;;;;;;;7.38;1.85;;;6.40;99.90;;;;;;5100685;28;20097;-69
2022/11/24 05:30:48;;;;;;;13.45;3.83;;;6.40;99.90;;;;;;5100374;28;20303;-69
2022/11/24 05:33:21;;;;;;;9.70;2.35;;;6.50;99.90;;;;;;5099841;28;20024;-69
2022/11/24 05:35:50;;;;;;;11.85;2.15;;;6.50;99.90;;;;;;5099646;28;20024;-69
2022/11/24 05:38:17;;;;;;;11.48;3.50;;;6.50;99.90;;;;;;5081925;28;20027;-69
2022/11/24 05:40:45;;;;;;;12.63;3.65;;;6.50;99.90;;;;;;5082426;28;20024;-69
2022/11/24 05:43:14;;;;;;;8.52;2.22;;;6.60;99.90;;;;;;5081767;28;20047;-69
2022/11/24 05:45:42;;;;;;;16.27;3.50;;;6.60;99.90;;;;;;5099650;28;20362;-69
2022/11/24 05:48:15;;;;;;;15.90;2.80;;;6.70;99.90;;;;;;5099667;28;20027;-69
2022/11/24 05:50:42;;;;;;;11.50;2.58;;;6.80;99.90;;;;;;5099377;28;20032;-69
2022/11/24 05:53:12;;;;;;;11.82;2.60;;;6.80;99.90;;;;;;5099800;28;20051;-69
2022/11/24 05:55:40;;;;;;;14.10;2.42;;;6.90;99.90;;;;;;5099212;28;20027;-69
2022/11/24 05:58:09;;;;;;;11.82;2.15;;;6.80;99.90;;;;;;5100122;28;20111;-69
2022/11/24 06:00:37;;;;;;;9.80;2.22;;;6.80;99.90;;;;;;5099368;28;20035;-69
2022/11/24 06:03:04;;;;;;;13.90;3.78;;;6.80;99.90;;;;;;5099282;28;20020;-69
2022/11/24 06:05:32;;;;;;;8.60;2.47;;;6.70;99.90;;;;;;5081990;28;20028;-69
2022/11/24 06:07:59;;;;;;;6.47;1.60;;;6.70;99.90;;;;;;5099349;28;20031;-69
2022/11/24 06:10:27;;;;;;;10.50;1.75;;;6.60;99.90;;;;;;5081914;28;20169;-69
2022/11/24 06:12:54;;;;;;;9.15;2.10;;;6.60;99.90;;;;;;5099116;28;20016;-69
2022/11/24 06:15:22;;;;;;;17.20;2.55;;;6.60;99.90;;;;;;5099058;28;20104;-69
2022/11/24 06:17:54;;;;;;;7.68;2.28;;;6.60;99.90;;;;;;5099472;28;20020;-69
2022/11/24 06:20:23;;;;;;;14.30;2.65;;;6.60;99.90;;;;;;5097931;28;20084;-69
2022/11/24 06:22:50;;;;;;;18.05;2.28;;;6.60;99.90;;;;;;5081271;28;20328;-69
2022/11/24 06:25:17;;;;;;;7.00;1.83;;;6.60;99.90;;;;;;5098875;28;20047;-69
2022/11/24 06:27:45;;;;;;;20.20;4.45;;;6.60;99.90;;;;;;5098808;28;20324;-69
2022/11/24 06:30:13;;;;;;;7.15;2.38;;;6.60;99.90;;;;;;5098699;28;20107;-69
2022/11/24 06:32:43;;;;;;;14.30;3.00;;;6.60;99.90;;;;;;5099326;28;20109;-69
2022/11/24 06:35:15;;;;;;;18.10;3.83;;;6.60;99.90;;;;;;5080865;28;20317;-69
2022/11/24 06:37:42;;;;;;;19.90;9.18;;;6.60;99.90;;;;;;5098629;28;20016;-68
2022/11/24 06:40:10;;;;;;;21.85;4.88;;;6.50;99.90;;;;;;5099105;28;20016;-68
2022/11/24 06:42:37;;;;;;;8.93;3.65;;;6.50;99.90;;;;;;5098976;28;20093;-69
2022/11/24 06:45:05;;;;;;;12.55;2.70;;;6.50;99.90;;;;;;5098498;28;20018;-69
2022/11/24 06:47:33;;;;;;;7.68;3.70;;;6.50;99.90;;;;;;5080502;28;20048;-70
2022/11/24 06:50:00;;;;;;;13.52;4.13;;;6.40;99.90;;;;;;5098220;28;20136;-70
2022/11/24 06:52:28;;;;;;;7.70;2.72;;;6.40;99.90;;;;;;5080575;28;20020;-70
2022/11/24 06:54:56;;;;;;;11.98;3.13;;;6.40;99.90;;;;;;5080337;28;20020;-70
2022/11/24 06:57:23;;;;;;;23.50;3.55;;;6.40;99.90;;;;;;5098229;28;20039;-70
2022/11/24 06:59:50;;;;;;;12.77;3.05;;;6.30;99.90;;;;;;5098493;28;20020;-70
2022/11/24 07:02:18;;;;;;;16.17;3.30;;;6.40;99.90;;;;;;5080206;28;20301;-70
2022/11/24 07:04:45;;;;;;;12.80;3.05;;;6.30;99.90;;;;;;5098130;28;20020;-70
2022/11/24 07:07:13;;;;;;;10.07;2.00;;;6.40;99.90;;;;;;5098049;28;20028;-70
2022/11/24 07:09:40;;;;;;;15.60;3.25;;;6.50;99.90;;;;;;5097999;28;20024;-70
2022/11/24 07:12:08;;;;;;;12.10;1.88;;;6.60;99.90;;;;;;5098308;28;20359;-70
2022/11/24 07:14:35;;;;;;;13.32;3.17;;;6.70;99.90;;;;;;5098214;28;20408;-70
2022/11/24 07:17:03;;;;;;;11.10;2.10;;;6.80;99.90;;;;;;5098167;28;20024;-71
2022/11/24 07:19:30;;;;;;;7.50;1.60;;;7.00;99.90;;;;;;5098115;28;20036;-71
2022/11/24 07:21:58;;;;;;;7.05;2.28;;;7.20;99.90;;;;;;5098256;28;20024;-70
2022/11/24 07:24:26;;;;;;;8.52;1.88;;;7.20;99.90;;;;;;5098501;28;20051;-74
2022/11/24 07:26:53;;;;;;;15.85;2.40;;;7.30;99.90;;;;;;5097968;28;20027;-70
2022/11/24 07:29:21;;;;;;;16.52;2.95;;;7.40;99.90;;;;;;5079690;28;20025;-73
2022/11/24 07:31:48;;;;;;;15.27;2.38;;;7.50;99.90;;;;;;5097119;28;20058;-72
2022/11/24 07:34:16;;;;;;;13.48;2.33;;;7.50;99.90;;;;;;5098205;28;20022;-72
2022/11/24 07:36:43;;;;;;;15.30;3.33;;;7.50;99.90;;;;;;5098233;28;20103;-75
2022/11/24 07:39:11;;;;;;;14.70;2.17;;;7.50;99.90;;;;;;5097778;28;20043;-74
2022/11/24 07:41:39;;;;;;;10.30;2.00;;;7.50;99.90;;;;;;5097692;28;20417;-72
2022/11/24 07:44:07;;;;;;;14.25;3.03;;;7.60;99.90;;;;;;5097933;28;20024;-75
2022/11/24 07:46:34;;;;;;;11.40;2.45;;;7.60;99.90;;;;;;5097371;28;20020;-76
2022/11/24 07:49:02;;;;;;;10.70;2.13;;;7.60;99.90;;;;;;5097292;28;20024;-79
2022/11/24 07:51:29;;;;;;;16.88;2.35;;;7.60;99.90;;;;;;5079197;28;20130;-85
2022/11/24 07:53:56;;;;;;;9.30;2.42;;;7.50;99.90;;;;;;5079429;28;20024;-75
2022/11/24 07:56:24;;;;;;;13.05;3.00;;;7.50;99.90;;;;;;5075839;28;20337;-76
2022/11/24 07:58:52;;;;;;;9.52;1.77;;;7.50;99.90;;;;;;5075779;28;20017;-76
2022/11/24 08:01:19;;;;;;;8.73;1.77;;;7.50;99.90;;;;;;5077056;28;20435;-78
2022/11/24 08:03:46;;;;;;;12.10;1.80;;;7.40;99.90;;;;;;5077206;28;20154;-77
2022/11/24 08:06:14;;;;;;;11.60;2.45;;;7.30;99.90;;;;;;5076775;28;20082;-77
2022/11/24 08:08:43;;;;;;;10.02;2.03;;;7.30;99.90;;;;;;5075722;28;20084;-74
2022/11/24 08:11:14;;;;;;;7.93;1.58;;;7.30;99.90;;;;;;5076876;28;20032;-72
2022/11/24 08:13:42;;;;;;;9.40;3.05;;;7.30;99.90;;;;;;5077449;28;20027;-72
2022/11/24 08:16:15;;;;;;;8.38;1.85;;;7.30;99.90;;;;;;5077174;28;20070;-72
2022/11/24 08:18:49;;;;;;;9.80;1.80;;;7.30;99.90;;;;;;5076621;28;20383;-72
2022/11/24 08:21:16;;;;;;;8.02;1.58;;;7.30;99.90;;;;;;5075433;28;20039;-73
2022/11/24 08:23:44;;;;;;;8.45;1.83;;;7.30;99.90;;;;;;5077313;28;20025;-70
2022/11/24 08:26:16;;;;;;;9.18;1.88;;;7.30;99.90;;;;;;5075425;28;20020;-74
2022/11/24 08:28:45;;;;;;;10.35;3.90;;;7.40;99.90;;;;;;5076529;28;20032;-71
2022/11/24 08:31:18;;;;;;;12.70;4.32;;;7.40;99.90;;;;;;5076968;28;20082;-71
2022/11/24 08:33:46;;;;;;;9.85;2.50;;;7.50;99.90;;;;;;5077138;28;20025;-69
2022/11/24 08:36:18;;;;;;;6.15;2.20;;;7.50;99.90;;;;;;5076963;28;20044;-69
2022/11/24 08:38:47;;;;;;;11.05;2.80;;;7.50;99.90;;;;;;5076519;28;20020;-73
2022/11/24 08:41:16;;;;;;;11.50;2.20;;;7.50;99.90;;;;;;5076648;28;20408;-72
2022/11/24 08:43:43;;;;;;;6.25;2.08;;;7.60;99.90;;;;;;5079792;28;20062;-72
2022/11/24 08:46:15;;;;;;;16.80;2.72;;;7.60;99.90;;;;;;5079437;28;20027;-71
2022/11/24 08:48:48;;;;;;;8.65;2.38;;;7.60;99.90;;;;;;5080377;28;20036;-72
2022/11/24 08:51:18;;;;;;;13.30;3.22;;;7.60;99.90;;;;;;5080345;28;20028;-71
2022/11/24 08:53:46;;;;;;;9.52;2.53;;;7.60;99.90;;;;;;5080590;28;20317;-72
2022/11/24 08:56:14;;;;;;;11.00;1.98;;;7.70;99.90;;;;;;5086096;28;20040;-72
2022/11/24 08:58:41;;;;;;;12.45;2.35;;;7.70;99.90;;;;;;5100510;28;20020;-72
2022/11/24 09:01:14;;;;;;;7.90;2.65;;;7.70;99.90;;;;;;5082459;28;20035;-71
2022/11/24 09:03:42;;;;;;;10.63;2.38;;;7.80;99.90;;;;;;5100545;28;20111;-72
2022/11/24 09:06:10;;;;;;;9.02;2.05;;;7.80;99.90;;;;;;5082419;28;20020;-72
2022/11/24 09:08:37;;;;;;;7.50;2.47;;;7.80;99.90;;;;;;5100389;28;20028;-72
2022/11/24 09:11:08;;;;;;;10.98;3.17;;;7.80;99.90;;;;;;5100230;28;20030;-70
2022/11/24 09:13:36;;;;;;;6.82;2.33;;;7.90;99.90;;;;;;5100443;28;20320;-71
2022/11/24 09:16:14;;;;;;;22.48;3.10;;;8.00;99.90;;;;;;5100794;28;20012;-71
2022/11/24 09:18:42;;;;;;;13.73;2.40;;;8.00;99.90;;;;;;5082153;28;20021;-72
2022/11/24 09:21:14;;;;;;;12.63;2.17;;;8.10;99.90;;;;;;5100642;28;20114;-73
2022/11/24 09:23:43;;;;;;;13.38;2.25;;;8.20;99.90;;;;;;5081938;28;20024;-73
2022/11/24 09:26:12;;;;;;;12.27;2.50;;;8.20;99.90;;;;;;5099307;28;20032;-70
2022/11/24 09:28:41;;;;;;;15.02;3.08;;;8.30;99.90;;;;;;5081953;28;20070;-70
2022/11/24 09:31:11;;;;;;;15.43;2.95;;;8.30;99.90;;;;;;5100408;28;20355;-70
2022/11/24 09:33:40;;;;;;;6.38;2.22;;;8.30;99.90;;;;;;5099977;28;20038;-71
2022/11/24 09:36:08;;;;;;;12.25;2.53;;;8.30;99.90;;;;;;5100384;28;20024;-70
2022/11/24 09:38:36;;;;;;;15.15;2.97;;;8.30;99.90;;;;;;5099848;28;20369;-70
2022/11/24 09:41:27;;;;;;;10.32;2.13;;;8.40;99.90;;;;;;5100012;28;20020;-70
2022/11/24 09:44:22;;;;;;;8.43;2.47;;;8.50;99.90;;;;;;5100189;28;20077;-71
2022/11/24 09:47:07;;;;;;;8.13;1.90;;;8.60;99.90;;;;;;5100201;28;20020;-70
2022/11/24 09:50:11;;;;;;;7.22;2.35;;;8.70;99.90;;;;;;5100055;28;20059;-74
2022/11/24 09:52:46;;;;;;;16.42;2.90;;;8.80;99.90;;;;;;5086401;28;20036;-73
2022/11/24 09:55:39;;;;;;;16.33;3.53;;;8.80;99.90;;;;;;5099414;28;20028;-73
2022/11/24 09:58:33;;;;;;;17.05;2.80;;;8.80;99.90;;;;;;5079393;28;20036;-72
2022/11/24 10:01:05;;;;;;;8.88;2.58;;;8.80;99.90;;;;;;5061187;28;20047;-73
2022/11/24 10:03:45;;;;;;;9.02;1.92;;;8.80;99.90;;;;;;5079717;28;20023;-73
2022/11/24 10:06:26;;;;;;;17.15;3.03;;;8.80;99.90;;;;;;5079802;28;20078;-73
2022/11/24 10:09:25;;;;;;;15.45;2.45;;;8.80;99.90;;;;;;5079972;28;20043;-72
2022/11/24 10:12:19;;;;;;;16.65;3.15;;;8.90;99.90;;;;;;5079543;28;20020;-76
2022/11/24 10:14:57;;;;;;;8.80;1.73;;;8.90;99.90;;;;;;5082010;28;20131;-76
2022/11/24 10:17:44;;;;;;;14.85;2.08;;;8.90;99.90;;;;;;5080124;28;20024;-74
2022/11/24 10:20:23;;;;;;;;;;;8.90;99.90;;;;;;5080206;28;20039;-74
2022/11/24 10:23:28;;;;;;;11.68;2.05;;;8.90;99.90;;;;;;5064519;28;19904;-74
2022/11/24 10:25:59;;;;;;;16.33;2.17;;;9.00;99.90;;;;;;5078633;28;20302;-76
2022/11/24 10:28:41;;;;;;;10.20;1.80;;;9.00;99.90;;;;;;5060778;28;20024;-76
2022/11/24 10:31:45;;;;;;;7.72;1.40;;;9.00;99.90;;;;;;5078711;28;20052;-76
2022/11/24 10:34:17;;;;;;;10.68;2.80;;;9.00;99.90;;;;;;5074636;28;20037;-75
2022/11/24 10:37:11;;;;;;;7.03;1.77;;;9.00;99.90;;;;;;5078703;28;20348;-76
2022/11/24 10:40:24;;;;;;;12.15;1.83;;;9.10;99.90;;;;;;5071853;28;20425;-74
2022/11/24 10:42:51;;;;;;;13.20;2.58;;;9.20;99.90;;;;;;5078349;28;20032;-74
2022/11/24 10:45:24;;;;;;;9.30;2.70;;;9.30;99.90;;;;;;5078212;28;20021;-72
2022/11/24 10:47:53;;;;;;;4.57;1.70;;;9.40;99.90;;;;;;5078394;28;20021;-74
2022/11/24 10:50:32;;;;;;;7.47;1.80;;;9.50;99.90;;;;;;5078256;28;20016;-72
2022/11/24 10:53:15;;;;;;;7.82;2.83;;;9.60;99.90;;;;;;5078658;28;20405;-73
2022/11/24 10:55:58;;;;;;;12.90;1.77;;;9.60;99.90;;;;;;5079135;28;20484;-73
2022/11/24 10:58:34;;;;;;;13.52;1.90;;;9.70;99.90;;;;;;5098732;28;20024;-72
2022/11/24 11:01:32;;;;;;;7.13;1.45;;;9.70;99.90;;;;;;5098500;28;20020;-74
2022/11/24 11:04:00;;;;;;;12.05;2.40;;;9.80;99.90;;;;;;5098262;28;20416;-74
2022/11/24 11:06:31;;;;;;;6.85;1.77;;;9.70;99.90;;;;;;5097687;28;20034;-73
2022/11/24 11:09:08;;;;;;;9.50;2.53;;;9.70;99.90;;;;;;5098044;28;20020;-74
2022/11/24 11:11:35;;;;;;;;;;;9.80;99.90;;;;;;5098600;28;20361;-75
2022/11/24 11:14:14;;;;;;;9.00;1.50;;;9.80;99.90;;;;;;5079888;28;19957;-74
2022/11/24 11:16:56;;;;;;;9.25;2.20;;;9.90;99.90;;;;;;5079902;28;20428;-74
2022/11/24 11:19:38;;;;;;;5.95;1.88;;;9.90;99.90;;;;;;5095559;28;20031;-74
2022/11/24 11:22:12;;;;;;;8.32;1.92;;;9.90;99.90;;;;;;5080031;28;20408;-73
2022/11/24 11:24:41;;;;;;;10.27;2.08;;;10.00;99.90;;;;;;5079767;28;20028;-73
2022/11/24 11:27:24;;;;;;;12.15;3.00;;;10.00;99.90;;;;;;5098041;28;20024;-72
2022/11/24 11:29:52;;;;;;;7.50;1.58;;;10.00;99.90;;;;;;5079708;28;20027;-71
2022/11/24 11:32:21;;;;;;;10.35;2.78;;;10.00;99.90;;;;;;5097703;28;20426;-72
2022/11/24 11:34:55;;;;;;;9.80;1.80;;;10.00;99.90;;;;;;5098014;28;20074;-71
2022/11/24 11:37:31;;;;;;;7.15;2.10;;;10.00;99.90;;;;;;5079717;28;20434;-74
2022/11/24 11:39:59;;;;;;;10.90;2.45;;;10.00;99.90;;;;;;5098039;28;20073;-75
2022/11/24 11:42:39;;;;;;;8.30;2.33;;;9.90;99.90;;;;;;5097576;28;20038;-73
2022/11/24 11:45:21;;;;;;;8.60;2.55;;;9.90;99.90;;;;;;5079378;28;20120;-71
2022/11/24 11:47:52;;;;;;;8.20;2.17;;;9.80;99.90;;;;;;5097356;28;20089;-72
2022/11/24 11:50:37;;;;;;;6.13;1.98;;;9.80;99.90;;;;;;5097408;28;20496;-74
2022/11/24 11:53:21;;;;;;;8.75;2.30;;;9.70;99.90;;;;;;5097675;28;20133;-70
2022/11/24 11:56:03;;;;;;;9.65;2.15;;;9.70;99.90;;;;;;5097269;28;20016;-70
2022/11/24 11:58:37;;;;;;;7.47;2.47;;;9.70;99.90;;;;;;5097759;28;20027;-72
2022/11/24 12:01:23;;;;;;;5.28;2.15;;;9.70;99.90;;;;;;5097138;28;20343;-69
2022/11/24 12:04:09;;;;;;;10.73;2.80;;;9.70;99.90;;;;;;5097703;28;20035;-70
2022/11/24 12:06:46;;;;;;;8.40;2.40;;;9.70;99.90;;;;;;5097604;28;20286;-70
2022/11/24 12:09:40;;;;;;;10.43;2.08;;;9.70;99.90;;;;;;5097469;28;20065;-73
2022/11/24 12:12:44;;;;;;;15.65;3.33;;;9.60;99.90;;;;;;5097361;28;20145;-75
2022/11/24 12:15:44;;;;;;;8.98;2.40;;;9.60;99.90;;;;;;5097200;28;20082;-74
2022/11/24 12:18:30;;;;;;;8.50;2.35;;;9.60;99.90;;;;;;5078900;28;20031;-75
2022/11/24 12:21:13;;;;;;;8.48;3.20;;;9.50;99.90;;;;;;5078917;28;20065;-77
2022/11/24 12:24:02;;;;;;;8.55;2.75;;;9.50;99.90;;;;;;5079025;28;20039;-76
2022/11/24 12:26:44;;;;;;;5.63;2.40;;;9.50;99.90;;;;;;5078868;28;20110;-75
2022/11/24 12:29:50;;;;;;;6.15;2.30;;;9.50;99.90;;;;;;5096751;28;20020;-75
2022/11/24 12:32:42;;;;;;;9.35;2.50;;;9.50;99.90;;;;;;5096981;28;20107;-76
2022/11/24 12:35:37;;;;;;;7.43;2.42;;;9.50;99.90;;;;;;5078743;28;20077;-76
2022/11/24 12:38:19;;;;;;;8.63;2.50;;;9.40;99.90;;;;;;5078743;28;20111;-77
2022/11/24 12:40:53;;;;;;;4.30;2.33;;;9.40;99.90;;;;;;5078701;28;20205;-75
2022/11/24 12:43:39;;;;;;;8.77;2.50;;;9.40;99.90;;;;;;5097328;28;20032;-75
2022/11/24 12:46:28;;;;;;;4.90;1.88;;;9.30;99.90;;;;;;5078705;28;20320;-76
2022/11/24 12:49:13;;;;;;;8.57;2.80;;;9.30;99.90;;;;;;5096747;28;20386;-76
2022/11/24 12:51:52;;;;;;;5.53;2.00;;;9.30;99.90;;;;;;5078829;28;20301;-77
2022/11/24 12:54:21;;;;;;;6.18;2.20;;;9.30;99.90;;;;;;5097046;28;20052;-76
2022/11/24 12:57:29;;;;;;;8.40;2.35;;;9.20;99.90;;;;;;5096522;28;20436;-78
2022/11/24 13:00:05;;;;;;;5.78;2.70;;;9.20;99.90;;;;;;5045390;28;20059;-75
2022/11/24 13:03:10;;;;;;;10.38;2.45;;;9.20;99.90;;;;;;5096656;28;20027;-76
2022/11/24 13:06:01;;;;;;;10.13;2.60;;;9.10;99.90;;;;;;5096690;28;20035;-75
2022/11/24 13:08:30;;;;;;;9.57;4.78;;;9.10;99.90;;;;;;5096381;28;20082;-77
2022/11/24 13:11:22;;;;;;;6.97;2.92;;;9.00;99.90;;;;;;5096254;28;20106;-82
2022/11/24 13:13:57;;;;;;;7.78;2.85;;;9.00;99.90;;;;;;5096706;28;20463;-74
2022/11/24 13:16:26;;;;;;;5.80;2.28;;;8.90;99.90;;;;;;5096362;28;20420;-76
2022/11/24 13:19:01;;;;;;;6.35;2.65;;;8.90;99.90;;;;;;5078791;28;20024;-74
2022/11/24 13:21:45;;;;;;;9.97;3.23;;;8.90;99.90;;;;;;5096531;28;20289;-75
2022/11/24 13:24:25;;;;;;;5.18;2.95;;;8.90;99.90;;;;;;5096793;28;20258;-74